Airport ID:6TE6
Update Time (UTC):26/09/2020 11:34
Wind Speed (Knots):1
Wind Direction (Magnetic):160
Temperature (°C):15
Dew Point (°C):12
Humidity (%):78
Altimeter (inHg):29.9
Density Altitude (Feet):
Visibility:10+
Clouds (Hundreds of feet):OVC050
Present Weather:
METAR:METAR 6TE6 261130Z AUTO 00000KT 10SM OVC050 16/12 A2990 RMK A01

The data displayed is for advisory purposes only and is not to be used for flight planning or operations.